ARG0719 SAAC-SABE
Flight info
| Callsign | ARG0719 |
|---|---|
| Flight time | N/A |
| Altitude | FL240 |
| Route | PADAS N785 GUA W11 PAGON |
| Aircraft | F28/M-VD/C |
Departure
| Time | 2026-05-06 19:57 |
|---|---|
| Airport | Comodoro Pierrestegui Airport (SAAC) |
Arrival
| Time | N/A |
|---|---|
| Airport | Aeroparque Jorge Newbery (SABE) |
| Time | Latitude | Longitude | Altitude | Speed | Heading |
|---|---|---|---|---|---|
| 2026-05-06 19:41 | -31.30274 | -58.00116 | 84 ft | 0 kts | 190° |
| 2026-05-06 19:56 | -31.30284 | -58.00116 | 87 ft | 4 kts | 172° |
| 2026-05-06 19:56 | -31.30299 | -58.00095 | 83 ft | 5 kts | 112° |
| 2026-05-06 19:56 | -31.30300 | -58.00093 | 83 ft | 0 kts | 111° |
| 2026-05-06 19:56 | -31.30309 | -58.00064 | 85 ft | 9 kts | 108° |
| 2026-05-06 19:57 | -31.30265 | -58.00010 | 85 ft | 28 kts | 28° |
| 2026-05-06 19:57 | -31.29855 | -57.99755 | 79 ft | 106 kts | 27° |
| 2026-05-06 19:57 | -31.29042 | -57.99243 | 327 ft | 148 kts | 30° |
| 2026-05-06 19:57 | -31.28199 | -57.98433 | 879 ft | 172 kts | 52° |
| 2026-05-06 19:58 | -31.27918 | -57.96930 | 1414 ft | 214 kts | 87° |
| 2026-05-06 19:58 | -31.28448 | -57.95170 | 2015 ft | 256 kts | 123° |
| 2026-05-06 19:58 | -31.29881 | -57.93772 | 2568 ft | 282 kts | 152° |
| 2026-05-06 19:58 | -31.31768 | -57.93093 | 3093 ft | 287 kts | 180° |
| 2026-05-06 19:59 | -31.33685 | -57.93485 | 3616 ft | 279 kts | 210° |
| 2026-05-06 19:59 | -31.35156 | -57.94196 | 4050 ft | 279 kts | 205° |
| 2026-05-06 19:59 | -31.36974 | -57.94963 | 4573 ft | 277 kts | 207° |
| 2026-05-06 19:59 | -31.38766 | -57.95778 | 5067 ft | 277 kts | 208° |
| 2026-05-06 20:00 | -31.40538 | -57.96631 | 5547 ft | 277 kts | 209° |
| 2026-05-06 20:00 | -31.42316 | -57.97518 | 6039 ft | 277 kts | 209° |
| 2026-05-06 20:00 | -31.44078 | -57.98415 | 6513 ft | 277 kts | 210° |
| 2026-05-06 20:00 | -31.45842 | -57.99329 | 6977 ft | 278 kts | 210° |
| 2026-05-06 20:01 | -31.47609 | -58.00253 | 7437 ft | 281 kts | 210° |
| 2026-05-06 20:01 | -31.49394 | -58.01200 | 7881 ft | 284 kts | 210° |
| 2026-05-06 20:01 | -31.51195 | -58.02165 | 8350 ft | 287 kts | 210° |
| 2026-05-06 20:01 | -31.53023 | -58.03160 | 8814 ft | 292 kts | 210° |
| 2026-05-06 20:02 | -31.54872 | -58.04177 | 9288 ft | 298 kts | 210° |
| 2026-05-06 20:02 | -31.56762 | -58.05233 | 9773 ft | 305 kts | 210° |
| 2026-05-06 20:02 | -31.58696 | -58.06326 | 10217 ft | 313 kts | 210° |
| 2026-05-06 20:02 | -31.60678 | -58.07458 | 10664 ft | 322 kts | 210° |
| 2026-05-06 20:03 | -31.62712 | -58.08626 | 11114 ft | 330 kts | 210° |
| 2026-05-06 20:03 | -31.64798 | -58.09832 | 11575 ft | 339 kts | 210° |
| 2026-05-06 20:03 | -31.66930 | -58.11069 | 12046 ft | 346 kts | 210° |
| 2026-05-06 20:03 | -31.69112 | -58.12326 | 12524 ft | 354 kts | 209° |
| 2026-05-06 20:04 | -31.71364 | -58.13549 | 13008 ft | 361 kts | 207° |
| 2026-05-06 20:04 | -31.73693 | -58.14718 | 13519 ft | 368 kts | 206° |
| 2026-05-06 20:04 | -31.76084 | -58.15863 | 14018 ft | 375 kts | 205° |
| 2026-05-06 20:04 | -31.78515 | -58.17007 | 14489 ft | 380 kts | 205° |
| 2026-05-06 20:05 | -31.80981 | -58.18153 | 14934 ft | 385 kts | 205° |
| 2026-05-06 20:05 | -31.83518 | -58.19193 | 15391 ft | 390 kts | 200° |
| 2026-05-06 20:05 | -31.86123 | -58.20138 | 15848 ft | 394 kts | 201° |
| 2026-05-06 20:05 | -31.88748 | -58.21078 | 16317 ft | 397 kts | 200° |
| 2026-05-06 20:06 | -31.91395 | -58.22020 | 16783 ft | 400 kts | 201° |
| 2026-05-06 20:06 | -31.94064 | -58.22967 | 17262 ft | 401 kts | 201° |
| 2026-05-06 20:06 | -31.96736 | -58.23917 | 17750 ft | 403 kts | 201° |
| 2026-05-06 20:06 | -31.99413 | -58.24868 | 18221 ft | 404 kts | 201° |
| 2026-05-06 20:07 | -32.02103 | -58.25826 | 18652 ft | 404 kts | 201° |
| 2026-05-06 20:07 | -32.04788 | -58.26782 | 19087 ft | 404 kts | 201° |
| 2026-05-06 20:07 | -32.07473 | -58.27739 | 19528 ft | 404 kts | 201° |
| 2026-05-06 20:07 | -32.10152 | -58.28694 | 19978 ft | 403 kts | 202° |
| 2026-05-06 20:08 | -32.12807 | -58.29642 | 20430 ft | 402 kts | 202° |
| 2026-05-06 20:08 | -32.15455 | -58.30588 | 20900 ft | 400 kts | 202° |
| 2026-05-06 20:08 | -32.18115 | -58.31538 | 21371 ft | 399 kts | 202° |
| 2026-05-06 20:08 | -32.20759 | -58.32483 | 21850 ft | 397 kts | 202° |
| 2026-05-06 20:09 | -32.23387 | -58.33423 | 22339 ft | 394 kts | 203° |
| 2026-05-06 20:09 | -32.25998 | -58.34358 | 22831 ft | 392 kts | 203° |
| 2026-05-06 20:09 | -32.28595 | -58.35286 | 23326 ft | 389 kts | 203° |
| 2026-05-06 20:09 | -32.31178 | -58.36212 | 23611 ft | 391 kts | 204° |
| 2026-05-06 20:10 | -32.33794 | -58.37154 | 23726 ft | 398 kts | 203° |
| 2026-05-06 20:10 | -32.36462 | -58.38110 | 23772 ft | 406 kts | 203° |
| 2026-05-06 20:10 | -32.39196 | -58.39091 | 23777 ft | 415 kts | 203° |
| 2026-05-06 20:10 | -32.41957 | -58.40079 | 23773 ft | 417 kts | 203° |
| 2026-05-06 20:11 | -32.44730 | -58.41076 | 23776 ft | 418 kts | 203° |
| 2026-05-06 20:11 | -32.47513 | -58.42076 | 23771 ft | 419 kts | 203° |
| 2026-05-06 20:11 | -32.50299 | -58.43079 | 23767 ft | 420 kts | 203° |
| 2026-05-06 20:11 | -32.53088 | -58.44083 | 23768 ft | 421 kts | 203° |
| 2026-05-06 20:12 | -32.55886 | -58.45091 | 23759 ft | 422 kts | 203° |
| 2026-05-06 20:12 | -32.58691 | -58.46102 | 23758 ft | 423 kts | 203° |
| 2026-05-06 20:12 | -32.61502 | -58.47116 | 23757 ft | 424 kts | 203° |
| 2026-05-06 20:12 | -32.64324 | -58.48133 | 23753 ft | 425 kts | 203° |
| 2026-05-06 20:13 | -32.67151 | -58.49155 | 23754 ft | 426 kts | 203° |
| 2026-05-06 20:13 | -32.69985 | -58.50178 | 23749 ft | 427 kts | 203° |
| 2026-05-06 20:13 | -32.72821 | -58.51204 | 23744 ft | 428 kts | 203° |
| 2026-05-06 20:13 | -32.75670 | -58.52235 | 23741 ft | 428 kts | 203° |
| 2026-05-06 20:14 | -32.78513 | -58.53264 | 23740 ft | 429 kts | 203° |
| 2026-05-06 20:14 | -32.81364 | -58.54296 | 23736 ft | 430 kts | 203° |
| 2026-05-06 20:14 | -32.84223 | -58.55334 | 23731 ft | 430 kts | 203° |
| 2026-05-06 20:14 | -32.87081 | -58.56369 | 23725 ft | 431 kts | 203° |
| 2026-05-06 20:15 | -32.89947 | -58.57410 | 23718 ft | 431 kts | 203° |
| 2026-05-06 20:15 | -32.92812 | -58.58448 | 23720 ft | 432 kts | 203° |
| 2026-05-06 20:15 | -32.95676 | -58.59483 | 23721 ft | 432 kts | 203° |
| 2026-05-06 20:15 | -32.98554 | -58.60524 | 23721 ft | 433 kts | 203° |
| 2026-05-06 20:16 | -33.01432 | -58.61549 | 23722 ft | 435 kts | 200° |
| 2026-05-06 20:16 | -33.04462 | -58.62020 | 23722 ft | 443 kts | 189° |
| 2026-05-06 20:16 | -33.07534 | -58.62252 | 23717 ft | 444 kts | 188° |
| 2026-05-06 20:16 | -33.10611 | -58.62463 | 23725 ft | 443 kts | 189° |
| 2026-05-06 20:17 | -33.13669 | -58.62779 | 23733 ft | 443 kts | 191° |
| 2026-05-06 20:17 | -33.16727 | -58.63191 | 23742 ft | 442 kts | 194° |
| 2026-05-06 20:17 | -33.19747 | -58.63754 | 23737 ft | 442 kts | 193° |
| 2026-05-06 20:17 | -33.22811 | -58.64144 | 23734 ft | 443 kts | 192° |
| 2026-05-06 20:18 | -33.25868 | -58.64550 | 23735 ft | 444 kts | 192° |
| 2026-05-06 20:18 | -33.28913 | -58.64928 | 23729 ft | 430 kts | 192° |
| 2026-05-06 20:18 | -33.31802 | -58.65287 | 23598 ft | 410 kts | 192° |
| 2026-05-06 20:18 | -33.34610 | -58.65647 | 23096 ft | 404 kts | 192° |
| 2026-05-06 20:19 | -33.37382 | -58.65996 | 22525 ft | 399 kts | 192° |
| 2026-05-06 20:19 | -33.40114 | -58.66340 | 21975 ft | 394 kts | 192° |
| 2026-05-06 20:19 | -33.42822 | -58.66681 | 21438 ft | 389 kts | 192° |
| 2026-05-06 20:19 | -33.45497 | -58.67019 | 20914 ft | 385 kts | 192° |
| 2026-05-06 20:20 | -33.48135 | -58.67352 | 20395 ft | 381 kts | 192° |
| 2026-05-06 20:20 | -33.50765 | -58.67684 | 19889 ft | 378 kts | 192° |
| 2026-05-06 20:20 | -33.53359 | -58.68012 | 19387 ft | 374 kts | 192° |
| 2026-05-06 20:20 | -33.55933 | -58.68338 | 18897 ft | 371 kts | 192° |
| 2026-05-06 20:21 | -33.58487 | -58.68662 | 18410 ft | 368 kts | 191° |
| 2026-05-06 20:21 | -33.61021 | -58.68983 | 17935 ft | 366 kts | 191° |
| 2026-05-06 20:21 | -33.63533 | -58.69302 | 17392 ft | 363 kts | 192° |
| 2026-05-06 20:21 | -33.66032 | -58.69619 | 16863 ft | 360 kts | 192° |
| 2026-05-06 20:22 | -33.68508 | -58.69933 | 16339 ft | 358 kts | 192° |
| 2026-05-06 20:22 | -33.70964 | -58.70246 | 15831 ft | 355 kts | 192° |
| 2026-05-06 20:22 | -33.73405 | -58.70556 | 15329 ft | 352 kts | 192° |
| 2026-05-06 20:22 | -33.75829 | -58.70878 | 14837 ft | 349 kts | 192° |
| 2026-05-06 20:23 | -33.78246 | -58.71089 | 14343 ft | 352 kts | 182° |
| 2026-05-06 20:23 | -33.80674 | -58.70771 | 13870 ft | 352 kts | 176° |
| 2026-05-06 20:23 | -33.83086 | -58.70326 | 13376 ft | 350 kts | 175° |
| 2026-05-06 20:23 | -33.85469 | -58.69849 | 12853 ft | 348 kts | 175° |
| 2026-05-06 20:24 | -33.87846 | -58.69364 | 12324 ft | 346 kts | 174° |
| 2026-05-06 20:24 | -33.90210 | -58.68883 | 11809 ft | 344 kts | 174° |
| 2026-05-06 20:24 | -33.92557 | -58.68413 | 11301 ft | 342 kts | 174° |
| 2026-05-06 20:24 | -33.94904 | -58.68022 | 10802 ft | 339 kts | 179° |
| 2026-05-06 20:25 | -33.97236 | -58.67860 | 10307 ft | 335 kts | 185° |
| 2026-05-06 20:25 | -33.99532 | -58.68080 | 9830 ft | 330 kts | 192° |
| 2026-05-06 20:25 | -34.01798 | -58.68433 | 9323 ft | 328 kts | 193° |
| 2026-05-06 20:25 | -34.04054 | -58.68828 | 8801 ft | 327 kts | 194° |
| 2026-05-06 20:26 | -34.06287 | -58.69238 | 8288 ft | 325 kts | 194° |
| 2026-05-06 20:26 | -34.08507 | -58.69656 | 7796 ft | 323 kts | 194° |
| 2026-05-06 20:26 | -34.10722 | -58.70078 | 7307 ft | 322 kts | 194° |
| 2026-05-06 20:26 | -34.12925 | -58.70501 | 6819 ft | 320 kts | 194° |
| 2026-05-06 20:27 | -34.15110 | -58.70922 | 6343 ft | 318 kts | 195° |
| 2026-05-06 20:27 | -34.17289 | -58.71345 | 5844 ft | 317 kts | 195° |
| 2026-05-06 20:27 | -34.19452 | -58.71769 | 5331 ft | 315 kts | 194° |
| 2026-05-06 20:27 | -34.21603 | -58.72191 | 4909 ft | 311 kts | 194° |
| 2026-05-06 20:28 | -34.23728 | -58.72607 | 4770 ft | 308 kts | 194° |
| 2026-05-06 20:28 | -34.25810 | -58.73014 | 4719 ft | 302 kts | 194° |
| 2026-05-06 20:28 | -34.27870 | -58.73418 | 4711 ft | 296 kts | 194° |